Tropical Cyclones
[Index]
Main Index Home Page Stock Weather Photos Extreme Storms Discussion Storm News and Storm Chasing Reports Tropical Cyclones / Hurricanes / Typhoons Weather Data and Links Wild Fires / Bushfires Weather Observation Techniques Weather Picture Catalogue Tornado Pictures and Reports Stock Video Footage and DVDs for sale
Season 2012-2013 Tropical Cyclone EMANG Track Map
Season 2012-2013 Summaries: [BoM-AU] [JTWC-AU] [JTWC-SIO] [JTWC-SPAC] [JTWC-SH]
<<- Previous TC | JTWC 2012-2013 Season | Next TC ->>

click for intensity scale information  Lat/long Grid: Show Hide

 Date Labels: Show Hide

Joint Typhoon Warning Centre Cyclone Data

Name: EMANG

11 Jan 2013 06:00 UTC to 19 Jan 2013 18:00 UTC

    date/time    lat    long     hPa   cat  kts
2013-01-11 06   13.4    80.8    1007         20          
2013-01-11 12   13.0    80.9    1007         20          
2013-01-11 18   12.8    81.0    1005         20          
2013-01-12 00   12.5    81.0    1007         20          
2013-01-12 06   12.1    80.9    1004         25          
2013-01-12 12   11.8    80.7    1000         30          
2013-01-12 18   11.7    80.6    1000         30          
2013-01-13 00   11.5    80.6     996         35          
2013-01-13 06   11.7    80.8     996         35          
2013-01-13 12   11.7    80.6     996         35          
2013-01-13 18   11.7    80.1     996         35          
2013-01-14 00   12.1    79.8     996         35          
2013-01-14 06   12.4    79.5     996         35          
2013-01-14 12   12.8    79.2     996         35          
2013-01-14 18   13.0    79.0     996         35          
2013-01-15 00   13.2    78.8     996         35          
2013-01-15 06   13.5    78.9     996         35          
2013-01-15 12   13.8    78.8    1000         30          
2013-01-15 18   14.0    78.4    1000         30          
2013-01-16 00   14.2    78.2     996         35          
2013-01-16 06   14.2    77.9    1000         30          
2013-01-16 12   14.3    77.5    1000         30          
2013-01-16 18   14.4    77.0    1000         30          
2013-01-17 00   14.5    76.2    1000         30          
2013-01-17 06   14.8    75.4    1000         30          
2013-01-17 12   15.1    74.6    1000         30          
2013-01-17 18   15.3    73.8    1004         25          
2013-01-18 00   15.3    73.0    1004         25          
2013-01-18 06   15.3    72.0    1004         25          
2013-01-18 12   15.6    70.9    1004         25          
2013-01-18 18   15.8    69.8    1004         25          
2013-01-19 00   15.4    68.6    1004         25          
2013-01-19 06   15.1    67.4    1004         25          
2013-01-19 12   14.9    66.3    1004         25          
2013-01-19 18   15.4    64.4    1004         25          
Winds are 1-min average.

Tropical cyclone tracks developed by Michael Bath using data from the Joint Typhoon Warning Centre Best Tracks and Google Maps.


[Australian Severe Weather index] [Copyright Notice] [Email Contacts] [Search This Site] [Privacy Policy]
Document: tropical_cyclone_emang.htm Updated: 28 June 2017